Time;durP1;ratioP1;P1;durP2;ratioP2;P2;SDS_P1;SDS_P2;PMS_P1;PMS_P2;Temp;Humidity;BMP_temperature;BMP_pressure;BME280_temperature;BME280_humidity;BME280_pressure;Samples;Min_cycle;Max_cycle;Signal;HPM_P1;HPM_P2
2021/06/09 00:02:02;;;;;;;6.03;5.28;;;;;;;18.80;59.40;101132.50;4969097;28;20058;-77
2021/06/09 00:04:28;;;;;;;7.75;6.15;;;;;;;18.85;58.76;101148.41;4968755;28;20457;-77
2021/06/09 00:06:53;;;;;;;7.65;5.97;;;;;;;18.90;58.64;101141.13;4965643;28;20123;-77
2021/06/09 00:09:18;;;;;;;8.13;5.22;;;;;;;18.95;58.38;101152.56;4949207;28;20053;-77
2021/06/09 00:11:44;;;;;;;6.82;5.72;;;;;;;18.81;60.19;101151.19;4967497;28;20133;-76
2021/06/09 00:14:09;;;;;;;5.70;5.10;;;;;;;18.77;60.14;101148.66;4948485;28;20122;-77
2021/06/09 00:16:35;;;;;;;6.28;4.90;;;;;;;18.78;59.95;101148.59;4948976;28;20074;-77
2021/06/09 00:19:00;;;;;;;5.75;4.55;;;;;;;18.81;59.63;101140.50;4967916;28;20045;-77
2021/06/09 00:21:26;;;;;;;6.72;4.57;;;;;;;18.88;59.42;101146.50;4966295;28;20043;-77
2021/06/09 00:23:51;;;;;;;6.57;4.97;;;;;;;18.98;58.80;101142.63;4965782;28;20039;-77
2021/06/09 00:26:18;;;;;;;7.15;5.22;;;;;;;19.08;58.21;101143.22;4950619;28;20113;-77
2021/06/09 00:28:46;;;;;;;7.32;4.97;;;;;;;19.15;58.15;101151.91;4967045;28;20129;-76
2021/06/09 00:31:11;;;;;;;5.43;4.60;;;;;;;19.21;57.69;101144.59;4965370;28;20043;-77
2021/06/09 00:33:37;;;;;;;6.50;5.00;;;;;;;19.22;57.77;101146.31;4966540;28;20039;-77
2021/06/09 00:36:04;;;;;;;5.07;4.57;;;;;;;19.24;57.32;101149.84;4967577;28;20146;-77
2021/06/09 00:38:30;;;;;;;7.25;5.15;;;;;;;19.32;56.90;101152.25;4960755;28;20074;-77
2021/06/09 00:40:59;;;;;;;5.28;4.50;;;;;;;19.37;57.09;101155.66;4961412;28;20039;-77
2021/06/09 00:43:31;;;;;;;5.80;4.95;;;;;;;19.39;57.03;101163.66;4967395;28;20470;-77
2021/06/09 00:46:03;;;;;;;7.03;5.05;;;;;;;19.39;56.68;101169.00;4967550;28;20138;-77
2021/06/09 00:48:30;;;;;;;5.93;4.70;;;;;;;19.40;56.56;101166.28;4962622;28;20046;-77
2021/06/09 00:51:00;;;;;;;8.95;5.13;;;;;;;19.39;56.16;101163.66;4965435;28;20443;-77
2021/06/09 00:53:50;;;;;;;6.50;4.65;;;;;;;19.38;56.01;101157.41;4964211;28;20098;-78
2021/06/09 00:56:15;;;;;;;6.10;4.53;;;;;;;19.40;55.66;101162.72;4967826;28;20083;-78
2021/06/09 00:58:42;;;;;;;7.10;4.95;;;;;;;19.42;55.69;101158.19;4967649;28;20039;-77
2021/06/09 01:01:09;;;;;;;5.60;3.97;;;;;;;19.41;55.14;101153.75;4968195;28;20417;-78
2021/06/09 01:03:35;;;;;;;4.82;3.90;;;;;;;19.47;55.22;101146.41;4953353;28;20035;-78
2021/06/09 01:06:02;;;;;;;5.90;3.53;;;;;;;19.54;55.17;101154.22;4968299;28;20036;-78
2021/06/09 01:08:28;;;;;;;5.43;4.13;;;;;;;19.54;54.97;101152.41;4968346;28;20059;-78
2021/06/09 01:10:53;;;;;;;7.38;4.32;;;;;;;19.55;54.77;101154.19;4969769;28;20034;-78
2021/06/09 01:13:24;;;;;;;7.40;3.88;;;;;;;19.55;54.71;101151.50;4968523;28;20407;-78
2021/06/09 01:15:50;;;;;;;5.67;3.17;;;;;;;19.58;54.96;101150.53;4965979;28;20079;-77
2021/06/09 01:18:17;;;;;;;8.05;3.88;;;;;;;19.61;54.55;101148.63;4949028;28;20034;-77
2021/06/09 01:20:42;;;;;;;6.75;3.47;;;;;;;19.62;54.73;101144.13;4966028;28;20049;-77
2021/06/09 01:23:08;;;;;;;6.50;3.53;;;;;;;19.64;54.68;101151.19;4963727;28;20039;-77
2021/06/09 01:25:34;;;;;;;6.35;3.80;;;;;;;19.68;54.99;101149.34;4965374;28;20109;-77
2021/06/09 01:28:01;;;;;;;7.85;3.85;;;;;;;19.69;54.32;101151.94;4966273;28;20442;-76
2021/06/09 01:30:26;;;;;;;8.13;3.40;;;;;;;19.69;54.67;101157.28;4932798;28;20033;-77
2021/06/09 01:32:52;;;;;;;5.07;3.60;;;;;;;19.73;54.86;101159.88;4964288;28;20043;-77
2021/06/09 01:35:20;;;;;;;6.28;3.00;;;;;;;19.73;54.41;101155.41;4968055;28;20050;-77
2021/06/09 01:37:46;;;;;;;4.25;3.28;;;;;;;19.74;54.45;101153.59;4967636;28;20043;-77
2021/06/09 01:40:17;;;;;;;4.20;3.00;;;;;;;19.70;55.09;101159.06;4944690;28;20043;-78
2021/06/09 01:42:43;;;;;;;4.23;3.20;;;;;;;19.67;54.85;101163.63;4965575;28;20038;-76
2021/06/09 01:45:12;;;;;;;6.03;3.20;;;;;;;19.63;54.95;101162.84;4948738;28;20285;-77
2021/06/09 01:47:37;;;;;;;9.60;3.90;;;;;;;19.60;56.72;101157.59;4945638;28;20607;-77
2021/06/09 01:50:06;;;;;;;9.85;4.85;;;;;;;19.56;58.25;101166.63;4964183;28;20118;-77
2021/06/09 01:52:31;;;;;;;10.27;4.57;;;;;;;19.50;59.25;101156.16;4948184;28;20030;-77
2021/06/09 01:54:57;;;;;;;7.43;5.20;;;;;;;19.41;59.84;101162.69;4964833;28;20391;-77
2021/06/09 01:57:23;;;;;;;7.55;5.53;;;;;;;19.34;60.70;101160.25;4963495;28;20122;-77
2021/06/09 01:59:48;;;;;;;7.47;6.68;;;;;;;19.29;61.57;101167.56;4965936;28;20081;-77
2021/06/09 02:02:14;;;;;;;7.18;5.30;;;;;;;19.16;62.49;101167.06;4965257;28;20023;-77
2021/06/09 02:04:41;;;;;;;5.88;4.53;;;;;;;19.09;63.36;101155.66;4964009;28;20031;-77
2021/06/09 02:07:06;;;;;;;5.93;5.30;;;;;;;19.03;63.42;101156.75;4965176;28;20066;-77
2021/06/09 02:09:36;;;;;;;6.13;5.53;;;;;;;18.93;63.62;101157.94;4966036;28;20031;-77
2021/06/09 02:12:03;;;;;;;7.97;6.53;;;;;;;18.92;63.22;101174.06;4932643;28;20067;-77
2021/06/09 02:14:28;;;;;;;6.93;6.20;;;;;;;18.88;63.00;101167.03;4963688;28;20031;-77
2021/06/09 02:16:54;;;;;;;6.60;5.78;;;;;;;18.85;62.64;101169.81;4966114;28;20035;-77
2021/06/09 02:19:22;;;;;;;7.40;5.97;;;;;;;18.82;62.87;101163.63;4932683;28;20035;-77
2021/06/09 02:21:48;;;;;;;7.85;6.80;;;;;;;18.81;62.85;101161.88;4943931;28;20527;-78
2021/06/09 02:24:13;;;;;;;8.65;5.97;;;;;;;18.80;63.43;101159.25;4964891;28;20070;-77
2021/06/09 02:26:41;;;;;;;7.05;5.47;;;;;;;18.78;62.96;101161.09;4966017;28;20043;-77
2021/06/09 02:29:08;;;;;;;6.63;5.50;;;;;;;18.76;62.87;101163.81;4958302;28;20035;-77
2021/06/09 02:31:36;;;;;;;7.57;5.88;;;;;;;18.76;62.08;101160.28;4948320;28;20067;-76
2021/06/09 02:34:02;;;;;;;5.70;5.10;;;;;;;18.76;63.10;101165.63;4963307;28;20706;-78
2021/06/09 02:36:27;;;;;;;6.28;4.32;;;;;;;18.72;62.12;101167.47;4965125;28;20030;-77
2021/06/09 02:38:53;;;;;;;5.65;4.00;;;;;;;18.68;62.62;101159.56;4966009;28;20487;-77
2021/06/09 02:41:19;;;;;;;6.00;5.15;;;;;;;18.67;62.46;101157.84;4963602;28;20575;-77
2021/06/09 02:43:46;;;;;;;7.93;4.10;;;;;;;18.60;64.21;101158.03;4964048;28;20492;-78
2021/06/09 02:46:11;;;;;;;5.15;3.90;;;;;;;18.51;63.13;101168.09;4927958;28;20043;-78
2021/06/09 02:48:40;;;;;;;6.18;3.47;;;;;;;18.29;66.72;101167.84;4965038;28;20050;-78
2021/06/09 02:51:05;;;;;;;4.68;3.67;;;;;;;18.20;64.66;101173.44;4964991;28;20031;-77
2021/06/09 02:53:44;;;;;;;4.32;3.60;;;;;;;18.19;63.05;101169.91;4931035;28;20094;-77
2021/06/09 02:56:24;;;;;;;4.65;3.30;;;;;;;18.05;63.59;101172.94;4962669;28;20043;-77
2021/06/09 02:59:03;;;;;;;5.32;3.97;;;;;;;18.05;60.85;101164.94;4943067;28;20077;-77
2021/06/09 03:01:38;;;;;;;5.90;4.45;;;;;;;18.12;59.76;101166.50;4942372;28;20494;-76
2021/06/09 03:04:19;;;;;;;7.07;4.82;;;;;;;18.24;57.66;101169.78;4963190;28;20046;-77
2021/06/09 03:07:15;;;;;;;5.25;3.78;;;;;;;18.32;56.19;101165.97;4961836;28;20035;-77
2021/06/09 03:10:01;;;;;;;5.18;3.72;;;;;;;18.39;56.19;101162.19;4964823;28;20042;-77
2021/06/09 03:12:43;;;;;;;5.80;3.67;;;;;;;18.40;55.50;101163.06;4957628;28;20551;-77
2021/06/09 03:15:33;;;;;;;6.77;4.40;;;;;;;18.38;56.02;101163.09;4943076;28;20055;-77
2021/06/09 03:18:05;;;;;;;5.28;4.38;;;;;;;18.37;56.30;101164.03;4918670;28;20786;-77
2021/06/09 03:20:45;;;;;;;5.32;3.83;;;;;;;18.35;56.38;101162.31;4962211;28;20090;-77
2021/06/09 03:23:59;;;;;;;7.30;4.43;;;;;;;18.31;56.61;101163.31;4957311;28;20042;-77
2021/06/09 03:26:39;;;;;;;5.95;4.18;;;;;;;18.30;56.87;101165.13;4960251;28;20032;-77
2021/06/09 03:29:42;;;;;;;5.97;4.07;;;;;;;18.26;56.93;101167.91;4942749;28;20039;-77
2021/06/09 03:32:12;;;;;;;5.82;4.20;;;;;;;18.26;57.46;101163.47;4959100;28;20058;-77
2021/06/09 03:35:02;;;;;;;5.68;3.47;;;;;;;18.21;57.97;101164.50;4959501;28;20039;-77
2021/06/09 03:37:31;;;;;;;6.75;4.13;;;;;;;18.20;57.36;101166.28;4932612;28;20039;-77
2021/06/09 03:39:58;;;;;;;5.20;3.65;;;;;;;18.18;57.63;101158.34;4962153;28;20122;-77
2021/06/09 03:42:29;;;;;;;4.28;2.83;;;;;;;18.17;58.09;101169.06;4962384;28;20027;-77
2021/06/09 03:44:57;;;;;;;4.05;2.97;;;;;;;18.14;58.32;101169.13;4964201;28;20043;-77
2021/06/09 03:47:23;;;;;;;6.78;3.95;;;;;;;18.15;58.57;101168.22;4963420;28;20410;-77
2021/06/09 03:49:49;;;;;;;7.28;4.43;;;;;;;18.16;59.01;101162.84;4961768;28;20035;-77
2021/06/09 03:52:17;;;;;;;5.15;2.30;;;;;;;18.17;59.34;101167.25;4959907;28;20041;-78
2021/06/09 03:54:45;;;;;;;3.65;1.73;;;;;;;18.10;58.63;101171.03;4962753;28;20126;-79
2021/06/09 03:57:12;;;;;;;3.40;1.50;;;;;;;18.03;59.11;101177.44;4964514;28;20067;-78
2021/06/09 03:59:38;;;;;;;2.80;1.60;;;;;;;18.04;59.40;101168.50;4946739;28;20031;-78
2021/06/09 04:02:07;;;;;;;4.45;2.30;;;;;;;18.05;59.41;101166.69;4944855;28;20039;-78
2021/06/09 04:04:34;;;;;;;7.55;2.58;;;;;;;17.95;59.75;101164.28;4963376;28;20086;-77
2021/06/09 04:07:01;;;;;;;4.30;2.40;;;;;;;17.94;59.93;101167.88;4947543;28;20158;-78
2021/06/09 04:09:27;;;;;;;3.10;2.22;;;;;;;17.85;61.53;101168.13;4964044;28;20078;-77
2021/06/09 04:11:57;;;;;;;5.03;2.42;;;;;;;17.81;62.49;101169.09;4960749;28;20570;-76
2021/06/09 04:14:26;;;;;;;4.53;2.50;;;;;;;17.70;62.50;101168.47;4965182;28;20062;-77
2021/06/09 04:16:54;;;;;;;4.80;2.30;;;;;;;17.75;62.79;101166.56;4947101;28;20061;-77
2021/06/09 04:19:23;;;;;;;5.00;2.40;;;;;;;17.82;63.27;101170.00;4915077;28;20039;-77
2021/06/09 04:21:49;;;;;;;4.50;2.63;;;;;;;17.82;62.50;101165.53;4944086;29;20039;-77
2021/06/09 04:24:14;;;;;;;4.97;2.60;;;;;;;17.77;62.91;101164.75;4961545;28;20118;-77
2021/06/09 04:26:41;;;;;;;4.05;2.50;;;;;;;17.77;62.38;101170.09;4961673;28;20130;-77
2021/06/09 04:29:08;;;;;;;3.78;2.08;;;;;;;17.81;61.15;101165.56;4961083;28;20039;-77
2021/06/09 04:31:34;;;;;;;5.57;2.45;;;;;;;17.78;61.32;101161.16;4962683;28;20031;-77
2021/06/09 04:33:59;;;;;;;3.70;2.15;;;;;;;17.81;61.57;101168.22;4963015;28;20075;-77
2021/06/09 04:36:25;;;;;;;6.75;3.10;;;;;;;17.80;61.13;101170.03;4961153;28;20043;-77
2021/06/09 04:38:51;;;;;;;5.60;3.53;;;;;;;17.88;60.75;101169.84;4945622;28;20063;-77
2021/06/09 04:41:18;;;;;;;5.82;3.53;;;;;;;17.98;59.87;101168.69;4964255;28;20058;-76
2021/06/09 04:43:44;;;;;;;5.80;4.22;;;;;;;18.11;60.03;101166.56;4964407;28;20512;-77
2021/06/09 04:46:09;;;;;;;9.77;4.55;;;;;;;18.25;60.21;101161.69;4946808;28;20031;-77
2021/06/09 04:48:35;;;;;;;5.43;3.00;;;;;;;18.28;60.35;101166.06;4969281;28;20031;-77
2021/06/09 04:51:01;;;;;;;4.10;2.40;;;;;;;18.32;60.60;101163.28;4968469;28;20426;-77
2021/06/09 04:53:27;;;;;;;6.32;3.08;;;;;;;18.43;60.72;101175.47;4966150;28;20035;-77
2021/06/09 04:55:54;;;;;;;4.20;2.33;;;;;;;18.58;60.33;101169.69;4951924;28;20045;-78
2021/06/09 04:58:22;;;;;;;4.28;2.60;;;;;;;18.76;59.27;101169.19;4951888;28;20418;-77
2021/06/09 05:00:48;;;;;;;5.57;3.08;;;;;;;18.91;59.42;101178.50;4967267;28;20138;-77
2021/06/09 05:03:14;;;;;;;4.50;2.80;;;;;;;18.96;59.70;101175.69;4949911;28;20388;-77
2021/06/09 05:05:40;;;;;;;5.03;3.70;;;;;;;19.14;59.94;101176.94;4969630;28;20098;-78
2021/06/09 05:08:06;;;;;;;7.30;4.07;;;;;;;19.35;58.60;101173.56;4950217;28;20074;-77
2021/06/09 05:10:34;;;;;;;5.72;3.53;;;;;;;19.43;58.08;101176.00;4967207;28;20562;-78
2021/06/09 05:13:11;;;;;;;7.18;3.10;;;;;;;19.41;57.18;101183.19;4935076;28;20530;-78
2021/06/09 05:15:39;;;;;;;5.78;2.70;;;;;;;19.32;58.39;101175.47;4946573;28;20044;-77
2021/06/09 05:18:15;;;;;;;3.45;2.30;;;;;;;19.24;56.82;101178.41;4950898;28;20066;-77
2021/06/09 05:20:44;;;;;;;5.47;2.28;;;;;;;19.20;57.95;101184.75;4963869;28;20072;-77
2021/06/09 05:23:28;;;;;;;3.97;2.13;;;;;;;19.34;57.61;101169.16;4966531;28;20085;-77
2021/06/09 05:25:56;;;;;;;5.25;2.58;;;;;;;19.48;56.94;101169.56;4932249;29;20047;-78
2021/06/09 05:28:24;;;;;;;4.50;2.78;;;;;;;19.59;57.21;101173.69;4966558;28;20085;-78
2021/06/09 05:30:53;;;;;;;4.70;2.35;;;;;;;19.67;57.48;101175.22;4949704;28;20495;-77
2021/06/09 05:33:20;;;;;;;3.95;2.50;;;;;;;19.63;57.03;101181.56;4964955;28;20042;-78
2021/06/09 05:35:45;;;;;;;5.68;2.58;;;;;;;19.58;57.37;101179.97;4966217;28;20043;-77
2021/06/09 05:38:11;;;;;;;4.53;2.40;;;;;;;19.45;57.29;101185.72;4963804;28;20043;-78
2021/06/09 05:40:36;;;;;;;4.43;2.60;;;;;;;19.47;57.35;101183.88;4965796;28;20144;-78
2021/06/09 05:43:02;;;;;;;4.05;2.40;;;;;;;19.60;56.92;101184.38;4969051;28;20070;-76
2021/06/09 05:45:29;;;;;;;5.53;3.60;;;;;;;19.78;56.78;101180.22;4963622;28;20027;-77
2021/06/09 05:47:55;;;;;;;4.15;2.97;;;;;;;19.99;56.14;101183.97;4950381;28;20562;-78
2021/06/09 05:50:23;;;;;;;5.20;3.80;;;;;;;20.24;55.32;101191.13;4951161;28;20035;-77
2021/06/09 05:52:52;;;;;;;5.80;4.63;;;;;;;20.43;54.73;101189.53;4951247;28;20212;-78
2021/06/09 05:55:20;;;;;;;4.35;2.95;;;;;;;20.62;54.94;101195.13;4964078;28;20040;-78
2021/06/09 05:57:45;;;;;;;4.85;2.65;;;;;;;20.81;53.55;101194.44;4950636;28;20039;-78
2021/06/09 06:00:12;;;;;;;4.30;2.47;;;;;;;21.02;53.23;101191.78;4967172;28;20027;-78
2021/06/09 06:02:38;;;;;;;6.38;4.50;;;;;;;21.18;52.12;101188.50;4935732;28;20031;-77
2021/06/09 06:05:06;;;;;;;5.88;4.45;;;;;;;21.35;52.32;101190.50;4946871;28;20031;-77
2021/06/09 06:07:32;;;;;;;5.05;2.20;;;;;;;21.37;52.27;101189.50;4965828;28;20031;-77
2021/06/09 06:09:59;;;;;;;3.72;2.28;;;;;;;21.43;52.78;101186.63;4968082;28;20038;-78
2021/06/09 06:12:26;;;;;;;4.07;2.25;;;;;;;21.54;51.36;101194.22;4968639;28;20050;-78
2021/06/09 06:14:52;;;;;;;6.85;2.30;;;;;;;21.70;50.53;101202.53;4946159;28;20046;-78
2021/06/09 06:17:18;;;;;;;7.65;2.10;;;;;;;21.96;49.20;101189.81;4949679;28;20116;-77
2021/06/09 06:19:48;;;;;;;7.63;2.65;;;;;;;22.08;48.77;101184.75;4968535;28;20074;-78
2021/06/09 06:22:13;;;;;;;5.35;2.20;;;;;;;22.23;48.59;101185.91;4961828;28;20514;-78
2021/06/09 06:24:43;;;;;;;5.30;2.72;;;;;;;22.28;47.12;101185.72;4965997;28;20035;-77
2021/06/09 06:27:09;;;;;;;3.20;2.40;;;;;;;22.34;48.22;101190.81;4950058;28;20457;-78
2021/06/09 06:29:37;;;;;;;4.45;2.85;;;;;;;22.53;46.74;101190.84;4968446;28;20051;-77
2021/06/09 06:32:05;;;;;;;6.07;3.22;;;;;;;22.58;46.39;101187.97;4948930;28;20519;-78
2021/06/09 06:34:33;;;;;;;4.57;3.10;;;;;;;22.64;46.69;101188.56;4966633;28;20463;-78
2021/06/09 06:36:59;;;;;;;13.32;5.03;;;;;;;22.72;46.72;101189.09;4963025;28;20683;-78
2021/06/09 06:39:24;;;;;;;7.72;4.32;;;;;;;22.79;45.99;101181.59;4966598;28;20027;-78
2021/06/09 06:41:51;;;;;;;4.40;3.53;;;;;;;22.96;44.82;101186.19;4950489;28;20159;-78
2021/06/09 06:44:17;;;;;;;3.25;2.50;;;;;;;23.11;43.93;101182.81;4949302;28;20042;-77
2021/06/09 06:46:42;;;;;;;4.20;2.67;;;;;;;23.22;43.55;101186.78;4965631;28;20038;-78
2021/06/09 06:49:10;;;;;;;4.63;2.88;;;;;;;23.27;43.79;101184.75;4968145;28;20035;-78
2021/06/09 06:51:36;;;;;;;4.90;2.22;;;;;;;23.31;43.48;101191.72;4950356;28;20470;-78
2021/06/09 06:54:02;;;;;;;6.72;3.05;;;;;;;23.28;43.07;101189.19;4965920;28;20031;-78
2021/06/09 06:56:28;;;;;;;5.70;2.38;;;;;;;23.19;43.99;101191.38;4967172;28;20714;-78
2021/06/09 06:58:54;;;;;;;5.32;3.58;;;;;;;22.95;44.00;101197.88;4967982;28;20077;-77
2021/06/09 07:01:29;;;;;;;5.45;2.78;;;;;;;22.89;44.01;101198.19;4966519;28;20091;-78
2021/06/09 07:03:55;;;;;;;3.85;2.05;;;;;;;22.72;44.16;101196.28;4945433;28;20520;-77
2021/06/09 07:06:20;;;;;;;5.05;2.28;;;;;;;22.83;43.59;101201.16;4950184;28;20031;-78
2021/06/09 07:08:49;;;;;;;3.13;1.75;;;;;;;22.99;44.20;101204.03;4950230;28;20034;-77
2021/06/09 07:11:15;;;;;;;4.50;2.13;;;;;;;23.24;44.50;101198.34;4946496;28;20038;-77
2021/06/09 07:13:40;;;;;;;4.03;2.33;;;;;;;23.37;43.07;101194.09;4966601;28;20042;-78
2021/06/09 07:16:09;;;;;;;4.63;3.42;;;;;;;23.59;42.57;101199.31;4967728;28;20043;-77
2021/06/09 07:18:41;;;;;;;3.38;2.20;;;;;;;23.79;42.67;101201.06;4949111;28;20034;-78
2021/06/09 07:21:06;;;;;;;6.60;3.08;;;;;;;23.80;42.25;101194.69;4966991;28;20557;-78
2021/06/09 07:23:32;;;;;;;5.30;2.60;;;;;;;23.86;42.22;101202.47;4967887;28;20031;-77
2021/06/09 07:25:57;;;;;;;3.58;1.85;;;;;;;23.73;41.99;101204.91;4967270;28;20030;-78
2021/06/09 07:28:23;;;;;;;3.92;1.77;;;;;;;23.70;41.65;101212.25;4948384;28;20043;-77
2021/06/09 07:30:53;;;;;;;4.40;1.60;;;;;;;23.67;40.47;101201.63;4967024;28;20043;-77
2021/06/09 07:33:19;;;;;;;3.47;1.40;;;;;;;23.63;40.11;101201.78;4932049;28;20495;-77
2021/06/09 07:35:44;;;;;;;4.38;1.80;;;;;;;23.49;41.54;101206.97;4965786;28;20043;-77
2021/06/09 07:38:17;;;;;;;4.30;1.80;;;;;;;23.39;42.16;101208.38;4948919;28;20057;-77
2021/06/09 07:40:48;;;;;;;4.72;1.88;;;;;;;23.28;42.50;101205.34;4945262;28;20523;-78
2021/06/09 07:43:19;;;;;;;3.33;1.92;;;;;;;23.22;42.04;101205.66;4944239;28;20491;-77
2021/06/09 07:45:48;;;;;;;3.38;1.70;;;;;;;23.17;42.09;101209.41;4947679;28;20441;-78
2021/06/09 07:48:17;;;;;;;4.05;1.92;;;;;;;23.10;42.55;101207.09;4961754;28;20035;-78
2021/06/09 07:50:57;;;;;;;3.80;2.03;;;;;;;23.17;41.86;101212.13;4936096;28;20035;-78
2021/06/09 07:53:26;;;;;;;3.65;1.50;;;;;;;23.36;41.31;101200.44;4959209;28;20031;-78
2021/06/09 07:55:52;;;;;;;3.03;1.33;;;;;;;23.39;41.11;101203.00;4925860;28;20039;-78
2021/06/09 07:58:22;;;;;;;4.57;2.35;;;;;;;23.16;42.13;101201.41;4963262;28;20023;-78
2021/06/09 08:00:52;;;;;;;4.43;2.40;;;;;;;23.15;43.32;101205.91;4951369;28;20035;-78
2021/06/09 08:03:19;;;;;;;3.63;2.30;;;;;;;23.22;42.67;101200.25;4932852;28;20039;-78
2021/06/09 08:05:45;;;;;;;4.70;2.10;;;;;;;23.00;42.82;101206.66;4932492;29;20035;-78
2021/06/09 08:08:14;;;;;;;4.60;2.33;;;;;;;22.96;43.24;101205.03;4946647;28;20776;-78
2021/06/09 08:10:40;;;;;;;5.43;2.58;;;;;;;23.05;43.60;101204.59;4951505;28;20042;-78
2021/06/09 08:13:06;;;;;;;3.25;2.00;;;;;;;23.14;43.04;101212.25;4967004;28;20031;-79
2021/06/09 08:15:32;;;;;;;4.57;1.55;;;;;;;23.01;42.43;101211.09;4968872;28;20398;-78
2021/06/09 08:17:57;;;;;;;3.35;1.85;;;;;;;23.08;43.11;101208.97;4970302;28;20082;-78
2021/06/09 08:20:24;;;;;;;5.25;1.90;;;;;;;23.33;42.07;101206.84;4971816;28;20035;-78
2021/06/09 08:22:49;;;;;;;4.75;2.55;;;;;;;23.44;42.39;101213.53;4951960;28;21353;-78
2021/06/09 08:25:19;;;;;;;4.80;1.70;;;;;;;23.42;42.25;101208.22;4972448;28;20035;-78
2021/06/09 08:27:46;;;;;;;3.92;1.90;;;;;;;23.36;42.81;101212.09;4972839;28;20406;-78
2021/06/09 08:30:12;;;;;;;4.05;2.40;;;;;;;23.46;42.38;101208.97;4973697;28;20031;-78
2021/06/09 08:32:38;;;;;;;2.58;1.40;;;;;;;23.45;41.48;101209.88;4972246;28;20297;-78
2021/06/09 08:35:05;;;;;;;3.58;1.60;;;;;;;23.32;41.42;101215.91;4950784;28;20057;-78
2021/06/09 08:37:30;;;;;;;4.43;2.05;;;;;;;23.26;41.62;101202.72;4956361;28;20047;-78
2021/06/09 08:39:56;;;;;;;5.38;1.70;;;;;;;23.38;42.59;101206.63;4971999;28;20045;-78
2021/06/09 08:42:25;;;;;;;3.65;2.17;;;;;;;23.34;41.80;101210.41;4934159;28;20492;-78
2021/06/09 08:44:51;;;;;;;6.35;3.45;;;;;;;23.38;41.33;101212.03;4956206;28;20031;-78
2021/06/09 08:47:17;;;;;;;7.70;3.50;;;;;;;23.46;41.74;101209.81;4972498;28;20054;-78
2021/06/09 08:49:42;;;;;;;5.47;2.85;;;;;;;23.51;41.26;101202.38;4951082;28;20036;-78
2021/06/09 08:52:10;;;;;;;2.90;1.80;;;;;;;23.59;40.72;101210.97;4970346;28;20067;-77
2021/06/09 08:54:40;;;;;;;2.47;1.35;;;;;;;23.09;39.98;101211.63;4973230;28;20077;-78
2021/06/09 08:57:05;;;;;;;5.38;3.22;;;;;;;23.28;40.04;101208.91;4971072;28;20082;-78
2021/06/09 08:59:31;;;;;;;3.42;1.55;;;;;;;23.43;39.48;101207.28;4951165;28;20118;-78
2021/06/09 09:01:56;;;;;;;3.25;1.63;;;;;;;23.59;39.60;101208.28;4955049;28;20038;-78
2021/06/09 09:04:23;;;;;;;2.88;1.10;;;;;;;23.71;39.45;101205.91;4939955;28;20591;-78
2021/06/09 09:06:48;;;;;;;5.68;1.58;;;;;;;23.65;39.00;101203.53;4969261;28;20077;-78
2021/06/09 09:09:14;;;;;;;4.43;1.92;;;;;;;23.77;39.22;101206.50;4970728;28;20035;-78
2021/06/09 09:11:39;;;;;;;3.78;1.83;;;;;;;23.91;39.08;101205.81;4933676;29;20117;-78
2021/06/09 09:14:05;;;;;;;4.93;3.28;;;;;;;24.01;39.26;101196.28;4936977;28;20035;-78
2021/06/09 09:16:30;;;;;;;6.15;2.58;;;;;;;24.20;37.78;101200.72;4953511;28;20039;-78
2021/06/09 09:19:01;;;;;;;3.35;1.95;;;;;;;24.25;37.43;101199.53;4971936;28;20035;-78
2021/06/09 09:21:37;;;;;;;4.72;1.83;;;;;;;24.32;37.87;101205.47;4939979;28;20062;-78
2021/06/09 09:24:06;;;;;;;4.80;2.03;;;;;;;24.55;38.12;101200.69;4936226;29;20036;-78
2021/06/09 09:26:34;;;;;;;3.58;1.27;;;;;;;24.58;37.18;101200.56;4953764;28;20036;-78
2021/06/09 09:29:21;;;;;;;4.63;1.35;;;;;;;24.30;38.53;101201.13;4965145;28;20070;-78
2021/06/09 09:31:58;;;;;;;4.53;1.73;;;;;;;24.35;38.11;101201.75;4965267;28;20044;-78
2021/06/09 09:34:36;;;;;;;3.88;1.80;;;;;;;24.30;38.41;101211.91;4949698;28;20046;-78
2021/06/09 09:37:09;;;;;;;2.50;1.20;;;;;;;24.31;37.88;101206.41;4966251;28;20062;-78
2021/06/09 09:39:36;;;;;;;4.47;1.45;;;;;;;24.28;38.32;101209.28;4964930;28;20035;-78
2021/06/09 09:42:17;;;;;;;6.00;1.95;;;;;;;24.28;38.35;101210.16;4966714;28;20066;-77
2021/06/09 09:44:42;;;;;;;5.22;1.83;;;;;;;24.38;38.54;101207.84;4949648;28;20439;-78
2021/06/09 09:47:15;;;;;;;3.88;1.92;;;;;;;24.54;37.75;101198.97;4970146;28;20042;-78
2021/06/09 09:49:40;;;;;;;2.70;1.30;;;;;;;24.53;37.46;101199.94;4950632;28;20039;-78
2021/06/09 09:52:06;;;;;;;2.10;1.20;;;;;;;24.49;37.32;101202.75;4951968;28;20031;-78
2021/06/09 09:54:34;;;;;;;5.43;2.08;;;;;;;24.49;36.76;101208.16;4957511;28;20028;-78
2021/06/09 09:57:05;;;;;;;2.97;1.55;;;;;;;24.46;36.47;101202.06;4968106;28;20060;-78
2021/06/09 09:59:31;;;;;;;2.55;1.65;;;;;;;24.36;36.90;101204.34;4947496;28;20046;-78
2021/06/09 10:01:58;;;;;;;2.95;1.20;;;;;;;24.35;37.42;101205.31;4967363;28;20027;-78
2021/06/09 10:04:33;;;;;;;1.77;1.25;;;;;;;24.33;38.73;101201.81;4966627;28;20607;-78
2021/06/09 10:06:59;;;;;;;1.50;1.00;;;;;;;24.34;37.61;101202.69;4962942;28;20042;-77
2021/06/09 10:09:34;;;;;;;2.42;1.00;;;;;;;24.27;38.57;101202.16;4942698;28;20030;-79
2021/06/09 10:12:04;;;;;;;1.98;0.85;;;;;;;24.21;40.05;101197.09;4954373;28;20510;-77
2021/06/09 10:14:31;;;;;;;1.77;1.20;;;;;;;24.23;37.82;101187.97;4976888;28;20035;-79
2021/06/09 10:17:04;;;;;;;3.22;1.70;;;;;;;24.21;37.57;101186.31;4975080;28;20139;-78
2021/06/09 10:19:35;;;;;;;2.65;1.92;;;;;;;24.26;37.92;101186.91;4936891;28;20046;-79
2021/06/09 10:22:04;;;;;;;3.07;1.93;;;;;;;24.37;37.54;101181.84;4951077;28;20138;-79
2021/06/09 10:24:41;;;;;;;3.25;1.55;;;;;;;24.33;37.70;101180.25;4971181;28;20308;-79
2021/06/09 10:27:07;;;;;;;8.95;3.63;;;;;;;24.31;38.04;101176.75;4971944;28;20026;-79
2021/06/09 10:29:34;;;;;;;3.80;2.55;;;;;;;24.26;38.20;101178.81;4967408;28;20406;-78
2021/06/09 10:32:03;;;;;;;3.83;2.00;;;;;;;24.24;38.37;101178.03;4968372;28;20034;-79
2021/06/09 10:34:31;;;;;;;2.25;1.40;;;;;;;24.19;37.65;101172.03;4946788;28;20055;-78
2021/06/09 10:36:58;;;;;;;3.63;1.92;;;;;;;24.06;38.92;101172.66;4969515;28;20108;-78
2021/06/09 10:39:27;;;;;;;1.90;1.13;;;;;;;24.10;38.11;101164.41;4948507;28;20081;-77
2021/06/09 10:41:56;;;;;;;2.00;1.00;;;;;;;24.27;38.27;101175.19;4964764;28;20019;-78
2021/06/09 10:44:26;;;;;;;1.58;1.00;;;;;;;24.33;37.27;101164.06;4967992;28;20045;-78
2021/06/09 10:46:55;;;;;;;2.47;1.10;;;;;;;24.48;37.65;101157.00;4936244;28;20038;-77
2021/06/09 10:49:22;;;;;;;2.83;1.10;;;;;;;24.73;37.17;101151.09;4945423;28;20039;-78
2021/06/09 10:51:52;;;;;;;3.55;1.95;;;;;;;25.01;35.90;101152.28;4966095;28;20380;-78
2021/06/09 10:54:20;;;;;;;3.78;2.53;;;;;;;25.31;34.87;101147.00;4951034;28;20066;-79
2021/06/09 10:56:48;;;;;;;2.10;1.10;;;;;;;25.51;35.02;101138.56;4967258;28;20042;-78
2021/06/09 10:59:23;;;;;;;2.60;1.20;;;;;;;25.42;34.17;101144.53;4964700;28;20039;-78
2021/06/09 11:01:50;;;;;;;1.90;0.85;;;;;;;25.57;34.18;101137.31;4965992;28;20047;-79
2021/06/09 11:04:16;;;;;;;1.73;1.00;;;;;;;25.60;33.77;101142.56;4967151;28;20065;-79
2021/06/09 11:06:42;;;;;;;3.17;1.30;;;;;;;25.86;33.44;101126.63;4967781;28;20558;-79
2021/06/09 11:09:12;;;;;;;1.85;0.90;;;;;;;25.91;32.56;101135.34;4964739;28;20035;-79
2021/06/09 11:11:38;;;;;;;1.83;0.85;;;;;;;26.01;33.23;101125.69;4949744;28;20099;-79
2021/06/09 11:14:21;;;;;;;4.10;1.33;;;;;;;26.20;33.16;101129.03;4946409;28;20038;-79
2021/06/09 11:16:48;;;;;;;2.60;1.30;;;;;;;26.38;32.09;101131.53;4968160;28;20413;-79
2021/06/09 11:19:30;;;;;;;3.10;1.13;;;;;;;26.43;32.30;101122.13;4968073;28;20089;-79
2021/06/09 11:22:18;;;;;;;3.63;1.08;;;;;;;26.45;31.01;101113.94;4965847;28;20031;-79
2021/06/09 11:25:11;;;;;;;2.63;1.05;;;;;;;26.54;31.01;101118.81;4965566;28;20088;-79
2021/06/09 11:27:48;;;;;;;3.45;1.95;;;;;;;26.67;31.32;101122.47;4934285;28;20042;-79
2021/06/09 11:30:26;;;;;;;2.45;1.08;;;;;;;26.80;31.33;101124.38;4945930;29;20035;-79
2021/06/09 11:32:56;;;;;;;2.03;1.02;;;;;;;26.86;30.46;101113.16;4965469;28;20119;-79